Time;durP1;ratioP1;P1;durP2;ratioP2;P2;SDS_P1;SDS_P2;PMS_P1;PMS_P2;Temp;Humidity;BMP_temperature;BMP_pressure;BME280_temperature;BME280_humidity;BME280_pressure;Samples;Min_cycle;Max_cycle;Signal;HPM_P1;HPM_P2
2023/06/03 00:02:12;;;;;;;6.40;1.80;;;8.70;99.90;;;;;;5114147;27;20023;-82
2023/06/03 00:04:41;;;;;;;3.05;1.38;;;8.60;99.90;;;;;;5119491;27;20015;-81
2023/06/03 00:07:07;;;;;;;3.65;1.77;;;8.60;99.90;;;;;;5110588;27;20011;-81
2023/06/03 00:09:33;;;;;;;8.20;1.30;;;8.50;99.90;;;;;;5123588;27;20042;-81
2023/06/03 00:11:59;;;;;;;3.55;1.50;;;8.50;99.90;;;;;;5110250;27;20023;-81
2023/06/03 00:14:24;;;;;;;4.18;1.20;;;8.50;99.90;;;;;;5115482;27;20480;-81
2023/06/03 00:16:50;;;;;;;3.50;1.42;;;8.40;99.90;;;;;;5110320;27;20375;-81
2023/06/03 00:19:17;;;;;;;4.90;1.55;;;8.40;99.90;;;;;;5117654;27;20020;-81
2023/06/03 00:21:50;;;;;;;2.53;1.40;;;8.30;99.90;;;;;;5118584;27;20027;-81
2023/06/03 00:24:19;;;;;;;3.30;1.40;;;8.30;99.90;;;;;;5107172;27;20024;-82
2023/06/03 00:26:45;;;;;;;4.05;1.42;;;8.20;99.90;;;;;;5109769;27;20068;-81
2023/06/03 00:29:10;;;;;;;4.80;1.50;;;8.20;99.90;;;;;;5108838;27;20114;-81
2023/06/03 00:31:36;;;;;;;7.43;1.60;;;8.20;99.90;;;;;;5121667;27;20020;-81
2023/06/03 00:34:02;;;;;;;3.53;1.40;;;8.10;99.90;;;;;;5113270;27;20034;-81
2023/06/03 00:36:27;;;;;;;1.83;1.30;;;8.10;99.90;;;;;;5115708;27;20591;-81
2023/06/03 00:38:53;;;;;;;2.80;1.23;;;8.00;99.90;;;;;;5099883;27;20468;-81
2023/06/03 00:41:19;;;;;;;1.63;1.02;;;8.00;99.90;;;;;;5118427;27;20250;-81
2023/06/03 00:43:45;;;;;;;2.15;1.30;;;8.00;99.90;;;;;;5119162;27;20100;-81
2023/06/03 00:46:13;;;;;;;10.07;1.50;;;7.90;99.90;;;;;;5119754;27;20023;-81
2023/06/03 00:48:38;;;;;;;2.05;1.30;;;7.90;99.90;;;;;;5100035;27;20032;-81
2023/06/03 00:51:06;;;;;;;4.65;1.30;;;7.80;99.90;;;;;;5118996;27;20065;-81
2023/06/03 00:53:32;;;;;;;1.95;1.48;;;7.80;99.90;;;;;;5112656;27;20027;-82
2023/06/03 00:55:58;;;;;;;1.85;1.20;;;7.80;99.90;;;;;;5125875;27;20528;-81
2023/06/03 00:58:23;;;;;;;3.45;1.60;;;7.70;99.90;;;;;;5109448;27;20023;-81
2023/06/03 01:00:49;;;;;;;7.28;1.27;;;7.70;99.90;;;;;;5117847;27;20380;-82
2023/06/03 01:03:19;;;;;;;1.92;1.33;;;7.60;99.90;;;;;;5120061;27;20020;-81
2023/06/03 01:05:54;;;;;;;3.55;1.42;;;7.60;99.90;;;;;;5113350;27;20324;-81
2023/06/03 01:08:28;;;;;;;3.50;1.48;;;7.60;99.90;;;;;;5112036;27;20024;-81
2023/06/03 01:11:09;;;;;;;2.70;1.40;;;7.60;99.90;;;;;;5112049;27;20039;-81
2023/06/03 01:13:41;;;;;;;2.88;1.77;;;7.60;99.90;;;;;;5104980;27;20023;-81
2023/06/03 01:16:08;;;;;;;1.60;1.40;;;7.60;99.90;;;;;;5115776;27;20043;-81
2023/06/03 01:18:35;;;;;;;1.88;1.42;;;7.50;99.90;;;;;;5106635;27;20035;-81
2023/06/03 01:21:02;;;;;;;4.00;1.25;;;7.50;99.90;;;;;;5111336;27;20027;-81
2023/06/03 01:23:33;;;;;;;2.15;1.48;;;7.50;99.90;;;;;;5116198;27;20039;-81
2023/06/03 01:26:00;;;;;;;4.03;1.50;;;7.40;99.90;;;;;;5108355;27;20085;-80
2023/06/03 01:28:27;;;;;;;5.10;1.70;;;7.40;99.90;;;;;;5104939;27;20098;-81
2023/06/03 01:30:54;;;;;;;2.03;1.52;;;7.30;99.90;;;;;;5115740;27;20076;-81
2023/06/03 01:33:21;;;;;;;5.03;1.55;;;7.30;99.90;;;;;;5112916;27;20062;-81
2023/06/03 01:35:48;;;;;;;3.00;1.75;;;7.30;99.90;;;;;;5113786;27;20053;-82
2023/06/03 01:38:14;;;;;;;3.33;1.50;;;7.20;99.90;;;;;;5117259;27;20027;-81
2023/06/03 01:40:40;;;;;;;6.93;1.75;;;7.20;99.90;;;;;;5116797;27;20106;-80
2023/06/03 01:43:06;;;;;;;3.33;1.33;;;7.20;99.90;;;;;;5107925;27;20503;-81
2023/06/03 01:45:32;;;;;;;3.30;1.58;;;7.20;99.90;;;;;;5126611;27;20007;-81
2023/06/03 01:47:59;;;;;;;5.70;1.50;;;7.10;99.90;;;;;;5108552;27;20421;-81
2023/06/03 01:50:25;;;;;;;3.63;1.45;;;7.10;99.90;;;;;;5108716;27;20039;-81
2023/06/03 01:52:51;;;;;;;1.70;1.30;;;7.00;99.90;;;;;;5118166;27;20061;-81
2023/06/03 01:55:17;;;;;;;2.58;1.40;;;7.00;99.90;;;;;;5114648;27;20027;-81
2023/06/03 01:57:42;;;;;;;4.43;1.70;;;7.00;99.90;;;;;;5107552;27;20023;-81
2023/06/03 02:00:11;;;;;;;4.78;1.85;;;7.00;99.90;;;;;;5113488;27;20015;-81
2023/06/03 02:02:37;;;;;;;14.05;2.08;;;6.90;99.90;;;;;;5117052;27;20476;-81
2023/06/03 02:05:03;;;;;;;1.00;1.00;;;6.90;99.90;;;;;;5112598;27;20103;-81
2023/06/03 02:07:32;;;;;;;3.72;1.80;;;6.90;99.90;;;;;;5104442;27;20168;-81
2023/06/03 02:09:58;;;;;;;6.65;2.40;;;6.90;99.90;;;;;;5115344;27;20131;-81
2023/06/03 02:12:24;;;;;;;3.25;1.92;;;6.80;99.90;;;;;;5092591;28;20023;-81
2023/06/03 02:14:56;;;;;;;3.15;1.77;;;6.80;99.90;;;;;;5119033;27;20488;-81
2023/06/03 02:17:24;;;;;;;4.15;1.65;;;6.80;99.90;;;;;;5117240;27;20067;-81
2023/06/03 02:19:50;;;;;;;5.45;2.03;;;6.80;99.90;;;;;;5115340;27;20483;-81
2023/06/03 02:22:17;;;;;;;2.53;1.70;;;6.80;99.90;;;;;;5121832;27;20015;-81
2023/06/03 02:24:43;;;;;;;5.47;1.90;;;6.80;99.90;;;;;;5116619;27;20479;-82
2023/06/03 02:27:09;;;;;;;2.53;1.80;;;6.80;99.90;;;;;;5118002;27;20156;-81
2023/06/03 02:29:35;;;;;;;3.35;1.80;;;6.80;99.90;;;;;;5116556;27;20114;-81
2023/06/03 02:32:02;;;;;;;3.33;2.63;;;6.80;99.90;;;;;;5104790;27;20066;-81
2023/06/03 02:34:28;;;;;;;2.60;1.77;;;6.80;99.90;;;;;;5113447;27;20070;-81
2023/06/03 02:36:53;;;;;;;2.88;2.03;;;6.80;99.90;;;;;;5112425;27;20027;-81
2023/06/03 02:39:19;;;;;;;1.55;1.38;;;6.70;99.90;;;;;;5110574;27;20019;-81
2023/06/03 02:41:49;;;;;;;5.80;2.78;;;6.70;99.90;;;;;;5111781;27;20452;-81
2023/06/03 02:44:16;;;;;;;3.38;3.05;;;6.70;99.90;;;;;;5114196;27;20341;-81
2023/06/03 02:46:41;;;;;;;7.05;3.53;;;6.70;99.90;;;;;;5111184;27;20020;-81
2023/06/03 02:49:08;;;;;;;8.05;3.80;;;6.60;99.90;;;;;;5115847;27;20460;-81
2023/06/03 02:51:35;;;;;;;15.60;4.50;;;6.60;99.90;;;;;;5116997;27;20428;-81
2023/06/03 02:54:00;;;;;;;7.25;3.38;;;6.60;99.90;;;;;;5116565;27;20031;-81
2023/06/03 02:56:29;;;;;;;5.72;3.03;;;6.60;99.90;;;;;;5116084;27;20034;-81
2023/06/03 02:58:54;;;;;;;8.82;3.08;;;6.50;99.90;;;;;;5107462;27;20032;-81
2023/06/03 03:01:21;;;;;;;10.48;3.45;;;6.60;99.90;;;;;;5112316;27;20030;-81
2023/06/03 03:03:47;;;;;;;3.92;2.55;;;6.50;99.90;;;;;;5113172;27;20015;-81
2023/06/03 03:06:19;;;;;;;5.57;2.95;;;6.50;99.90;;;;;;5114141;28;20327;-81
2023/06/03 03:08:48;;;;;;;5.25;3.20;;;6.50;99.90;;;;;;5103948;28;20036;-81
2023/06/03 03:11:14;;;;;;;4.93;2.97;;;6.40;99.90;;;;;;5115490;28;20024;-81
2023/06/03 03:13:41;;;;;;;2.95;2.65;;;6.40;99.90;;;;;;5110391;28;20480;-81
2023/06/03 03:16:07;;;;;;;4.13;2.83;;;6.40;99.90;;;;;;5116823;28;20027;-81
2023/06/03 03:18:32;;;;;;;5.75;2.80;;;6.40;99.90;;;;;;5101968;28;20023;-81
2023/06/03 03:20:58;;;;;;;4.68;2.38;;;6.30;99.90;;;;;;5116082;28;20030;-81
2023/06/03 03:23:25;;;;;;;3.28;2.17;;;6.30;99.90;;;;;;5116293;28;20026;-81
2023/06/03 03:25:50;;;;;;;4.00;2.10;;;6.30;99.90;;;;;;5114174;28;20058;-81
2023/06/03 03:28:16;;;;;;;6.90;2.67;;;6.30;99.90;;;;;;5109498;28;20020;-81
2023/06/03 03:30:41;;;;;;;5.35;2.47;;;6.30;99.90;;;;;;5113331;28;20035;-81
2023/06/03 03:33:07;;;;;;;2.78;2.25;;;6.30;99.90;;;;;;5116767;28;20109;-81
2023/06/03 03:35:39;;;;;;;4.22;2.55;;;6.40;99.90;;;;;;5114939;28;20098;-81
2023/06/03 03:38:06;;;;;;;7.22;2.90;;;6.30;99.90;;;;;;5108275;28;20077;-81
2023/06/03 03:40:35;;;;;;;4.15;2.78;;;6.30;99.90;;;;;;5107138;28;20110;-81
2023/06/03 03:43:02;;;;;;;3.70;2.47;;;6.40;99.90;;;;;;5110303;28;20114;-81
2023/06/03 03:45:37;;;;;;;3.53;2.40;;;6.30;99.90;;;;;;5109887;28;20030;-81
2023/06/03 03:48:04;;;;;;;3.13;2.25;;;6.30;99.90;;;;;;5121521;28;20027;-81
2023/06/03 03:50:50;;;;;;;5.28;2.40;;;6.30;99.90;;;;;;5113583;28;20031;-81
2023/06/03 03:53:17;;;;;;;6.18;2.95;;;6.40;99.90;;;;;;5112617;28;20102;-81
2023/06/03 03:55:45;;;;;;;4.25;2.45;;;6.30;99.90;;;;;;5110688;28;20024;-80
2023/06/03 03:58:37;;;;;;;7.13;2.60;;;6.30;99.90;;;;;;5115692;28;20019;-81
2023/06/03 04:01:12;;;;;;;6.85;2.90;;;6.30;99.90;;;;;;5091192;28;20459;-80
2023/06/03 04:03:41;;;;;;;2.90;2.60;;;6.40;99.90;;;;;;5110208;28;20027;-81
2023/06/03 04:06:12;;;;;;;5.07;2.65;;;6.40;99.90;;;;;;5116707;28;20096;-81
2023/06/03 04:08:47;;;;;;;9.15;3.40;;;6.50;99.90;;;;;;5114969;28;20023;-80
2023/06/03 04:11:28;;;;;;;5.22;2.95;;;6.50;99.90;;;;;;5114421;28;20023;-81
2023/06/03 04:13:55;;;;;;;10.50;3.13;;;6.60;99.90;;;;;;5110061;28;20460;-81
2023/06/03 04:16:42;;;;;;;6.32;2.72;;;6.60;99.90;;;;;;5114931;27;20080;-81
2023/06/03 04:19:32;;;;;;;5.60;2.10;;;6.70;99.90;;;;;;5094371;27;20045;-81
2023/06/03 04:21:59;;;;;;;5.25;2.67;;;6.70;99.90;;;;;;5114158;27;20028;-81
2023/06/03 04:24:25;;;;;;;4.63;2.38;;;6.80;99.90;;;;;;5101948;27;20024;-81
2023/06/03 04:26:52;;;;;;;4.68;2.58;;;6.90;99.90;;;;;;5109345;27;20089;-81
2023/06/03 04:29:18;;;;;;;7.85;2.45;;;6.90;99.90;;;;;;5115968;27;20031;-81
2023/06/03 04:31:44;;;;;;;2.58;2.22;;;7.00;99.90;;;;;;5118406;27;20040;-80
2023/06/03 04:34:09;;;;;;;5.30;2.95;;;7.00;99.90;;;;;;5111369;27;20486;-81
2023/06/03 04:36:35;;;;;;;4.40;2.63;;;7.10;99.90;;;;;;5119563;27;20037;-81
2023/06/03 04:39:04;;;;;;;6.38;2.58;;;7.20;99.90;;;;;;5112162;27;20126;-81
2023/06/03 04:41:32;;;;;;;5.50;2.78;;;7.20;99.90;;;;;;5115697;27;20019;-81
2023/06/03 04:43:59;;;;;;;4.72;2.13;;;7.40;99.90;;;;;;5107739;27;20055;-81
2023/06/03 04:46:35;;;;;;;5.85;2.97;;;7.40;99.90;;;;;;5107052;27;20024;-81
2023/06/03 04:49:01;;;;;;;5.97;2.67;;;7.50;99.90;;;;;;5105574;27;20067;-81
2023/06/03 04:51:30;;;;;;;5.25;2.78;;;7.70;99.90;;;;;;5110849;27;20054;-81
2023/06/03 04:53:56;;;;;;;6.70;2.83;;;7.80;99.90;;;;;;5112864;27;20088;-80
2023/06/03 04:56:28;;;;;;;7.15;2.25;;;8.00;99.90;;;;;;5117022;27;20023;-81
2023/06/03 04:58:55;;;;;;;6.18;2.20;;;8.10;99.90;;;;;;5115568;27;20087;-81
2023/06/03 05:01:25;;;;;;;6.40;2.33;;;8.20;99.90;;;;;;5115826;27;20035;-81
2023/06/03 05:03:52;;;;;;;5.65;2.20;;;8.30;99.90;;;;;;5111601;27;20051;-81
2023/06/03 05:06:19;;;;;;;4.35;2.60;;;8.50;99.90;;;;;;5112246;27;20532;-81
2023/06/03 05:08:47;;;;;;;6.22;2.00;;;8.50;99.90;;;;;;5108375;27;20015;-80
2023/06/03 05:11:14;;;;;;;9.48;2.22;;;8.60;99.90;;;;;;5114280;27;20012;-81
2023/06/03 05:13:40;;;;;;;7.10;2.30;;;8.70;99.90;;;;;;5121659;27;20028;-81
2023/06/03 05:16:05;;;;;;;11.68;2.47;;;8.80;99.90;;;;;;5116439;27;20081;-81
2023/06/03 05:18:31;;;;;;;5.35;2.38;;;8.90;99.90;;;;;;5110377;27;20040;-80
2023/06/03 05:20:56;;;;;;;4.63;2.15;;;8.90;99.90;;;;;;5112146;27;20034;-81
2023/06/03 05:23:22;;;;;;;6.43;2.10;;;9.00;99.90;;;;;;5120629;27;20011;-81
2023/06/03 05:25:47;;;;;;;9.40;2.13;;;9.00;99.90;;;;;;5113698;27;20058;-81
2023/06/03 05:28:13;;;;;;;9.98;2.17;;;9.10;99.90;;;;;;5113648;27;20046;-81
2023/06/03 05:30:39;;;;;;;6.53;2.72;;;9.10;99.90;;;;;;5109328;27;20114;-81
2023/06/03 05:33:04;;;;;;;4.28;1.75;;;9.10;99.90;;;;;;5107818;27;20110;-81
2023/06/03 05:35:30;;;;;;;7.07;1.80;;;9.10;99.90;;;;;;5106311;27;20461;-81
2023/06/03 05:37:55;;;;;;;5.68;1.92;;;9.20;99.90;;;;;;5106648;27;20028;-81
2023/06/03 05:40:21;;;;;;;11.93;1.90;;;9.20;99.90;;;;;;5089316;27;20023;-81
2023/06/03 05:42:47;;;;;;;3.08;1.65;;;9.20;99.90;;;;;;5117328;27;20012;-81
2023/06/03 05:45:13;;;;;;;4.43;2.10;;;9.20;99.90;;;;;;5109204;27;20095;-81
2023/06/03 05:47:39;;;;;;;3.42;1.92;;;9.30;99.90;;;;;;5108727;27;20015;-81
2023/06/03 05:50:08;;;;;;;2.67;1.60;;;9.30;99.90;;;;;;5111753;27;20031;-81
2023/06/03 05:52:34;;;;;;;6.22;1.90;;;9.40;99.90;;;;;;5109516;27;20023;-81
2023/06/03 05:54:59;;;;;;;5.72;1.80;;;9.40;99.90;;;;;;5111478;27;20047;-81
2023/06/03 05:57:25;;;;;;;4.85;1.67;;;9.50;99.90;;;;;;5122549;27;20475;-81
2023/06/03 05:59:51;;;;;;;4.70;1.75;;;9.50;99.90;;;;;;5105849;27;20028;-81
2023/06/03 06:02:20;;;;;;;1.88;1.30;;;9.60;99.90;;;;;;5113820;27;20027;-81
2023/06/03 06:04:46;;;;;;;4.60;2.30;;;9.70;99.90;;;;;;5109250;27;20461;-81
2023/06/03 06:07:12;;;;;;;9.60;2.22;;;9.70;99.90;;;;;;5108688;27;20026;-81
2023/06/03 06:09:37;;;;;;;5.20;2.00;;;9.80;99.90;;;;;;5098761;27;20119;-81
2023/06/03 06:12:04;;;;;;;5.65;2.13;;;9.90;99.90;;;;;;5099338;27;20012;-81
2023/06/03 06:14:30;;;;;;;6.18;2.67;;;9.90;99.90;;;;;;5109954;27;20036;-81
2023/06/03 06:16:56;;;;;;;5.60;3.35;;;10.00;99.90;;;;;;5105409;27;20025;-81
2023/06/03 06:19:23;;;;;;;9.13;3.15;;;10.10;99.90;;;;;;5092528;28;20614;-81
2023/06/03 06:21:49;;;;;;;9.27;2.50;;;10.10;99.90;;;;;;5119648;27;20027;-81
2023/06/03 06:24:16;;;;;;;9.05;2.53;;;10.20;99.90;;;;;;5114213;27;20022;-81
2023/06/03 06:26:41;;;;;;;5.25;2.33;;;10.20;99.90;;;;;;5116196;27;20120;-81
2023/06/03 06:29:10;;;;;;;5.28;2.58;;;10.20;99.90;;;;;;5109114;27;20055;-80
2023/06/03 06:31:35;;;;;;;8.32;3.08;;;10.30;99.90;;;;;;5107630;27;20404;-82
2023/06/03 06:34:02;;;;;;;6.13;2.67;;;10.30;99.90;;;;;;5104862;27;20032;-82
2023/06/03 06:36:44;;;;;;;7.25;3.30;;;10.40;99.90;;;;;;5112132;27;20441;-81
2023/06/03 06:39:35;;;;;;;6.47;3.63;;;10.40;99.90;;;;;;5104558;27;20130;-81
2023/06/03 06:42:28;;;;;;;7.88;2.97;;;10.40;99.90;;;;;;5112122;27;20112;-82
2023/06/03 06:44:53;;;;;;;11.63;4.22;;;10.50;99.90;;;;;;5098232;27;20174;-81
2023/06/03 06:47:23;;;;;;;6.15;2.60;;;10.40;99.90;;;;;;5113558;27;20110;-81
2023/06/03 06:49:49;;;;;;;4.07;2.03;;;10.40;99.90;;;;;;5104739;27;20039;-82
2023/06/03 06:52:15;;;;;;;11.13;2.50;;;10.50;99.90;;;;;;5109940;27;20023;-81
2023/06/03 06:54:41;;;;;;;5.00;2.25;;;10.50;99.90;;;;;;5086950;28;20474;-82
2023/06/03 06:57:07;;;;;;;5.97;2.70;;;10.60;99.90;;;;;;5108848;27;20483;-81
2023/06/03 06:59:33;;;;;;;6.00;2.40;;;10.60;99.90;;;;;;5091059;28;20019;-81
2023/06/03 07:01:59;;;;;;;3.42;2.00;;;10.70;99.90;;;;;;5103704;28;20020;-81
2023/06/03 07:04:25;;;;;;;7.03;2.70;;;10.70;99.90;;;;;;5109372;27;20062;-81
2023/06/03 07:06:50;;;;;;;4.80;2.58;;;10.90;99.90;;;;;;5102346;28;20042;-81
2023/06/03 07:09:16;;;;;;;8.18;2.33;;;10.90;99.90;;;;;;5110488;28;20330;-81
2023/06/03 07:11:46;;;;;;;7.13;2.17;;;11.00;99.90;;;;;;5100580;28;20377;-81
2023/06/03 07:14:12;;;;;;;5.93;2.60;;;10.90;99.90;;;;;;5092610;28;20491;-81
2023/06/03 07:16:41;;;;;;;4.13;2.25;;;11.00;99.90;;;;;;5109911;28;20018;-81
2023/06/03 07:19:06;;;;;;;3.90;2.13;;;11.00;99.90;;;;;;5106972;28;20113;-82
2023/06/03 07:21:33;;;;;;;5.10;1.88;;;11.10;99.90;;;;;;5115455;28;20134;-81
2023/06/03 07:23:59;;;;;;;3.75;1.92;;;11.20;99.90;;;;;;5105843;28;20012;-82
2023/06/03 07:26:27;;;;;;;7.93;2.13;;;11.20;99.90;;;;;;5110563;28;20384;-82
2023/06/03 07:28:56;;;;;;;10.05;2.05;;;11.30;99.90;;;;;;5108683;28;20036;-81
2023/06/03 07:31:22;;;;;;;8.77;2.40;;;11.30;99.90;;;;;;5101601;28;20036;-81
2023/06/03 07:33:51;;;;;;;6.85;2.35;;;11.40;99.90;;;;;;5109599;28;20026;-81
2023/06/03 07:36:18;;;;;;;7.70;2.92;;;11.40;99.90;;;;;;5097890;28;20399;-83
2023/06/03 07:39:06;;;;;;;4.45;2.17;;;11.40;99.90;;;;;;5105166;28;20118;-82
2023/06/03 07:41:36;;;;;;;2.90;1.92;;;11.40;99.90;;;;;;5114390;28;20019;-82
2023/06/03 07:44:05;;;;;;;6.63;2.40;;;11.50;99.90;;;;;;5108789;28;20066;-82
2023/06/03 07:46:45;;;;;;;6.35;2.10;;;11.60;99.90;;;;;;5104581;28;20030;-82
2023/06/03 07:49:13;;;;;;;5.28;2.30;;;11.60;99.90;;;;;;5105313;28;20130;-83
2023/06/03 07:51:49;;;;;;;7.75;2.22;;;11.60;99.90;;;;;;5106468;27;20057;-82
2023/06/03 07:54:16;;;;;;;8.52;2.40;;;11.70;99.90;;;;;;5109798;27;20023;-82
2023/06/03 07:56:42;;;;;;;7.18;2.53;;;11.80;99.90;;;;;;5116078;27;20062;-82
2023/06/03 07:59:10;;;;;;;5.97;2.47;;;11.90;99.90;;;;;;5111240;27;20473;-83
2023/06/03 08:01:36;;;;;;;7.78;2.42;;;12.10;99.90;;;;;;5115999;27;20031;-82
2023/06/03 08:04:24;;;;;;;4.88;2.00;;;12.10;99.90;;;;;;5110947;27;20042;-83
2023/06/03 08:06:52;;;;;;;8.30;2.25;;;12.20;99.90;;;;;;5097789;27;20077;-82
2023/06/03 08:09:27;;;;;;;4.15;2.28;;;12.30;99.90;;;;;;5110084;27;20089;-82
2023/06/03 08:11:56;;;;;;;7.82;2.45;;;12.40;99.90;;;;;;5109786;27;20027;-82
2023/06/03 08:14:24;;;;;;;7.30;2.00;;;12.40;99.90;;;;;;5102911;27;20457;-82
2023/06/03 08:16:50;;;;;;;4.43;1.70;;;12.60;99.90;;;;;;5110940;27;20508;-82
2023/06/03 08:19:17;;;;;;;4.25;2.30;;;12.60;99.90;;;;;;5107735;27;20394;-82
2023/06/03 08:21:44;;;;;;;2.90;1.65;;;12.60;99.90;;;;;;5106047;27;20020;-82
2023/06/03 08:24:10;;;;;;;7.97;3.47;;;12.70;99.90;;;;;;5106399;27;20087;-82
2023/06/03 08:26:36;;;;;;;7.55;2.72;;;12.70;99.90;;;;;;5110529;27;20035;-82
2023/06/03 08:29:03;;;;;;;3.92;1.88;;;12.80;99.90;;;;;;5114398;27;20035;-83
2023/06/03 08:31:32;;;;;;;4.82;2.15;;;12.80;99.90;;;;;;5108590;27;20035;-83
2023/06/03 08:33:59;;;;;;;10.82;2.30;;;12.90;99.90;;;;;;5108653;27;20031;-82
2023/06/03 08:36:24;;;;;;;5.10;2.03;;;13.00;99.90;;;;;;5114170;27;20034;-82
2023/06/03 08:38:50;;;;;;;5.43;1.90;;;13.10;99.90;;;;;;5116970;27;20034;-82
2023/06/03 08:41:16;;;;;;;8.55;2.38;;;13.10;99.90;;;;;;5112804;27;20301;-82
2023/06/03 08:43:54;;;;;;;6.10;2.20;;;13.10;99.90;;;;;;5112461;27;20051;-82
2023/06/03 08:46:39;;;;;;;3.70;1.83;;;13.20;99.90;;;;;;5096365;28;20396;-83
2023/06/03 08:49:08;;;;;;;6.55;2.30;;;13.30;99.90;;;;;;5098314;27;20074;-83
2023/06/03 08:51:43;;;;;;;9.25;1.95;;;13.40;99.90;;;;;;5105020;27;20499;-84
2023/06/03 08:54:13;;;;;;;5.15;2.08;;;13.40;99.90;;;;;;5105322;27;20031;-83
2023/06/03 08:56:45;;;;;;;5.47;2.50;;;13.50;99.90;;;;;;5109573;27;20036;-84
2023/06/03 08:59:20;;;;;;;5.20;2.10;;;13.50;99.90;;;;;;5093441;28;20034;-82
2023/06/03 09:01:47;;;;;;;9.47;2.60;;;13.50;99.90;;;;;;5111862;27;20426;-83
2023/06/03 09:04:14;;;;;;;6.75;2.63;;;13.60;99.90;;;;;;5108924;27;20802;-83
2023/06/03 09:06:44;;;;;;;4.88;2.22;;;13.60;99.90;;;;;;5109216;27;20393;-83
2023/06/03 09:09:11;;;;;;;6.88;1.60;;;13.70;99.90;;;;;;5109919;27;20039;-84
2023/06/03 09:11:38;;;;;;;4.95;1.88;;;13.80;99.90;;;;;;5111514;27;20022;-82
2023/06/03 09:14:05;;;;;;;9.27;2.25;;;13.80;99.90;;;;;;5105784;27;20039;-82
2023/06/03 09:16:35;;;;;;;7.28;2.00;;;13.90;99.90;;;;;;5116475;27;20035;-82
2023/06/03 09:19:01;;;;;;;10.43;1.92;;;13.90;99.90;;;;;;5120119;27;20491;-81
2023/06/03 09:21:27;;;;;;;3.75;1.80;;;14.00;99.90;;;;;;5113960;27;20499;-82
2023/06/03 09:23:52;;;;;;;4.40;1.90;;;14.10;99.90;;;;;;5110271;27;20032;-83
2023/06/03 09:26:18;;;;;;;3.90;1.80;;;14.20;99.90;;;;;;5085580;27;20078;-82
2023/06/03 09:28:47;;;;;;;4.22;2.47;;;14.30;99.90;;;;;;5110954;27;20031;-82
2023/06/03 09:31:13;;;;;;;9.48;2.28;;;14.40;99.90;;;;;;5118377;27;20023;-82
2023/06/03 09:33:40;;;;;;;8.00;2.08;;;14.40;99.90;;;;;;5115080;27;20126;-83
2023/06/03 09:36:11;;;;;;;15.10;2.00;;;14.50;99.90;;;;;;5113167;27;20032;-83
2023/06/03 09:38:54;;;;;;;11.65;2.05;;;14.60;99.90;;;;;;5104967;27;20023;-83
2023/06/03 09:41:22;;;;;;;4.13;1.60;;;14.60;99.90;;;;;;5108459;27;20035;-82
2023/06/03 09:43:55;;;;;;;7.43;2.25;;;14.60;99.90;;;;;;5093783;27;20468;-82
2023/06/03 09:46:21;;;;;;;6.20;1.88;;;14.70;99.90;;;;;;5110322;27;20076;-83
2023/06/03 09:48:47;;;;;;;8.90;1.67;;;14.70;99.90;;;;;;5108986;27;20032;-84
2023/06/03 09:51:13;;;;;;;7.50;1.63;;;14.70;99.90;;;;;;5105722;27;20433;-82
2023/06/03 09:53:39;;;;;;;4.57;1.27;;;14.80;99.90;;;;;;5116230;27;20027;-83
2023/06/03 09:56:26;;;;;;;11.85;1.92;;;14.90;99.90;;;;;;5097009;27;20023;-82
2023/06/03 09:59:14;;;;;;;11.50;3.58;;;15.00;99.90;;;;;;5102762;27;20039;-83
2023/06/03 10:01:41;;;;;;;12.82;2.67;;;15.10;99.90;;;;;;5108658;27;20028;-83
2023/06/03 10:04:06;;;;;;;7.93;2.15;;;15.20;99.90;;;;;;5117588;27;20054;-83
2023/06/03 10:06:35;;;;;;;7.05;2.08;;;15.20;99.90;;;;;;5115078;27;20027;-83
2023/06/03 10:09:21;;;;;;;9.40;1.83;;;15.20;99.90;;;;;;5110915;27;20727;-83
2023/06/03 10:11:51;;;;;;;8.68;2.40;;;15.20;99.90;;;;;;5109610;27;20059;-83
2023/06/03 10:14:21;;;;;;;6.28;1.85;;;15.30;99.90;;;;;;5111365;27;20028;-82
2023/06/03 10:17:03;;;;;;;12.25;1.60;;;15.30;99.90;;;;;;5110501;27;20127;-83
2023/06/03 10:19:31;;;;;;;6.70;1.75;;;15.40;95.90;;;;;;5107838;27;20027;-83
2023/06/03 10:21:57;;;;;;;9.27;2.38;;;15.40;95.30;;;;;;5104318;27;20227;-82
2023/06/03 10:24:24;;;;;;;7.85;2.10;;;15.40;96.40;;;;;;5107089;27;20135;-82
2023/06/03 10:26:50;;;;;;;9.38;1.83;;;15.40;97.40;;;;;;5116064;27;20039;-82
2023/06/03 10:29:16;;;;;;;13.43;1.77;;;15.40;99.50;;;;;;5114747;27;20059;-82
2023/06/03 10:31:45;;;;;;;3.45;2.05;;;15.50;97.50;;;;;;5124106;27;20360;-82
2023/06/03 10:34:14;;;;;;;12.43;2.38;;;15.50;98.10;;;;;;5117813;27;20031;-82
2023/06/03 10:36:44;;;;;;;6.10;1.63;;;15.50;98.50;;;;;;5112520;27;20358;-82
2023/06/03 10:39:10;;;;;;;8.25;1.70;;;15.60;99.90;;;;;;5115287;27;20039;-82
2023/06/03 10:41:39;;;;;;;10.35;2.72;;;15.60;99.90;;;;;;5107770;27;20069;-82
2023/06/03 10:44:05;;;;;;;7.97;2.85;;;15.70;99.80;;;;;;5107725;27;20026;-82
2023/06/03 10:46:33;;;;;;;4.05;2.00;;;15.80;97.20;;;;;;5124494;27;20110;-82
2023/06/03 10:49:01;;;;;;;5.85;1.70;;;15.80;98.30;;;;;;5108325;27;20015;-82
2023/06/03 10:52:04;;;;;;;13.15;2.30;;;15.80;99.30;;;;;;5102755;27;20020;-82
2023/06/03 10:55:05;;;;;;;9.20;2.15;;;15.80;97.10;;;;;;5101838;27;20027;-84
2023/06/03 10:57:44;;;;;;;5.18;2.10;;;15.90;98.70;;;;;;5114447;27;20030;-82
2023/06/03 11:00:11;;;;;;;7.53;2.30;;;16.00;97.30;;;;;;5120943;27;20560;-82
2023/06/03 11:03:03;;;;;;;4.63;2.13;;;16.10;95.50;;;;;;5127144;27;20250;-82
2023/06/03 11:05:28;;;;;;;5.50;2.05;;;16.30;95.10;;;;;;5096817;28;20686;-82
2023/06/03 11:07:54;;;;;;;3.78;2.08;;;16.40;93.70;;;;;;5109925;28;20208;-82
2023/06/03 11:10:39;;;;;;;9.73;2.80;;;16.50;97.20;;;;;;5113317;28;20036;-82
2023/06/03 11:13:05;;;;;;;6.30;1.95;;;16.50;94.60;;;;;;5108844;28;20068;-82
2023/06/03 11:15:58;;;;;;;4.90;2.15;;;16.40;94.00;;;;;;5113816;28;20393;-82
2023/06/03 11:18:24;;;;;;;3.15;2.03;;;16.40;92.20;;;;;;5113346;28;20027;-82
2023/06/03 11:20:49;;;;;;;7.00;1.98;;;16.40;91.60;;;;;;5112453;28;20034;-82
2023/06/03 11:23:40;;;;;;;6.30;2.00;;;16.40;90.30;;;;;;5115291;28;20015;-82
2023/06/03 11:26:31;;;;;;;9.88;2.65;;;16.40;91.70;;;;;;5114994;27;20373;-83
2023/06/03 11:28:57;;;;;;;5.32;2.05;;;16.50;93.80;;;;;;5113707;27;20020;-82
2023/06/03 11:31:24;;;;;;;8.57;2.08;;;16.50;95.10;;;;;;5121764;27;20076;-82
2023/06/03 11:34:23;;;;;;;14.52;2.72;;;16.70;99.90;;;;;;5124760;27;20031;-82
2023/06/03 11:36:51;;;;;;;5.07;1.95;;;16.90;94.70;;;;;;5107742;27;20428;-83
2023/06/03 11:39:18;;;;;;;10.95;2.40;;;16.90;89.10;;;;;;5121945;27;20417;-83
2023/06/03 11:42:01;;;;;;;4.75;2.13;;;17.00;86.60;;;;;;5116481;27;20045;-82
2023/06/03 11:44:27;;;;;;;6.30;2.05;;;16.90;84.10;;;;;;5111109;27;20023;-82
2023/06/03 11:46:53;;;;;;;9.07;1.60;;;16.90;86.40;;;;;;5117835;27;20026;-82
2023/06/03 11:49:21;;;;;;;6.38;2.10;;;16.90;85.30;;;;;;5118107;27;20450;-82
2023/06/03 11:51:52;;;;;;;9.18;2.10;;;17.00;90.80;;;;;;5116358;27;20577;-83
2023/06/03 11:54:20;;;;;;;10.65;2.30;;;17.00;87.20;;;;;;5093930;28;20018;-83
2023/06/03 11:56:46;;;;;;;10.35;2.30;;;17.00;82.00;;;;;;5127079;27;20023;-83
2023/06/03 11:59:17;;;;;;;7.95;1.95;;;17.00;80.00;;;;;;5115963;27;20533;-82
2023/06/03 12:01:59;;;;;;;3.13;1.90;;;16.90;76.10;;;;;;5114166;27;20031;-82
2023/06/03 12:04:27;;;;;;;7.32;2.00;;;17.00;75.40;;;;;;5115648;27;20030;-83
2023/06/03 12:06:53;;;;;;;3.17;1.73;;;17.10;72.90;;;;;;5119689;27;20038;-83
2023/06/03 12:09:21;;;;;;;4.95;1.80;;;17.10;73.60;;;;;;5121160;27;20048;-82
2023/06/03 12:11:47;;;;;;;7.72;1.45;;;17.10;72.20;;;;;;5120331;27;20415;-84
2023/06/03 12:14:32;;;;;;;4.93;1.80;;;17.10;70.30;;;;;;5116820;27;20064;-83
2023/06/03 12:17:26;;;;;;;3.67;1.70;;;17.10;68.20;;;;;;5118287;27;20468;-82
2023/06/03 12:19:52;;;;;;;7.00;1.85;;;17.20;70.00;;;;;;5113490;27;20547;-83
2023/06/03 12:22:23;;;;;;;10.40;1.65;;;17.20;65.80;;;;;;5107934;27;20020;-82
2023/06/03 12:24:49;;;;;;;9.55;1.58;;;17.30;71.50;;;;;;5113819;27;21381;-82
2023/06/03 12:27:22;;;;;;;3.55;1.77;;;17.30;66.60;;;;;;5113001;27;20124;-82
2023/06/03 12:29:55;;;;;;;7.93;1.83;;;17.30;60.80;;;;;;5112700;27;20031;-82
2023/06/03 12:32:22;;;;;;;11.65;2.72;;;17.40;59.60;;;;;;5120352;27;20379;-82
2023/06/03 12:34:48;;;;;;;6.50;1.73;;;17.30;58.50;;;;;;5111443;27;20792;-82
2023/06/03 12:37:30;;;;;;;4.03;1.73;;;17.40;59.50;;;;;;5116303;27;20036;-83
2023/06/03 12:39:57;;;;;;;6.20;2.20;;;17.40;58.90;;;;;;5120670;27;20019;-82
2023/06/03 12:42:37;;;;;;;10.55;2.20;;;17.40;59.90;;;;;;5116433;27;20027;-83
2023/06/03 12:45:03;;;;;;;3.85;1.40;;;17.50;59.80;;;;;;5112787;27;20559;-82
2023/06/03 12:47:29;;;;;;;10.20;1.95;;;17.50;58.90;;;;;;5124932;27;20038;-82
2023/06/03 12:50:22;;;;;;;2.97;1.95;;;17.50;58.10;;;;;;5123739;27;20042;-82
2023/06/03 12:52:49;;;;;;;8.57;1.75;;;17.50;58.40;;;;;;5114972;27;20077;-82
2023/06/03 12:55:17;;;;;;;6.28;1.63;;;17.50;60.40;;;;;;5120415;27;20023;-83
2023/06/03 12:57:46;;;;;;;4.55;1.88;;;17.50;59.50;;;;;;5118908;27;20368;-82
2023/06/03 13:00:21;;;;;;;8.35;2.30;;;17.50;59.60;;;;;;5113669;27;20015;-82
2023/06/03 13:02:56;;;;;;;6.60;2.22;;;17.50;60.00;;;;;;5116613;27;20019;-82